createdAt,value
2022-07-31T00:00:56.379Z,88.12
2022-07-31T00:02:00.818Z,88.11
2022-07-31T00:03:05.259Z,88.21
2022-07-31T00:04:09.567Z,88.50
2022-07-31T00:05:13.972Z,88.73
2022-07-31T00:06:18.280Z,88.91
2022-07-31T00:07:22.626Z,89.09
2022-07-31T00:08:27.021Z,89.19
2022-07-31T00:09:51.642Z,89.17
2022-07-31T00:10:35.739Z,88.94
2022-07-31T00:11:40.169Z,89.22
2022-07-31T00:12:44.542Z,89.15
2022-07-31T00:13:57.657Z,89.16
2022-07-31T00:14:53.277Z,89.14
2022-07-31T00:15:57.652Z,89.37
2022-07-31T00:17:02.319Z,89.41
2022-07-31T00:18:06.396Z,89.34
2022-07-31T00:19:13.707Z,89.41
2022-07-31T00:20:17.133Z,89.86
2022-07-31T00:21:21.525Z,89.98
2022-07-31T00:22:25.818Z,90.31
2022-07-31T00:23:30.232Z,90.45
2022-07-31T00:24:34.538Z,90.80
2022-07-31T00:25:38.940Z,90.84
2022-07-31T00:26:43.210Z,90.95
2022-07-31T00:27:47.556Z,90.92
2022-07-31T00:28:52.089Z,90.79
2022-07-31T00:29:56.421Z,90.95
2022-07-31T00:31:00.792Z,90.87
2022-07-31T00:32:05.268Z,90.91
2022-07-31T00:33:09.603Z,90.95
2022-07-31T00:34:13.961Z,90.88
2022-07-31T00:35:18.214Z,90.96
2022-07-31T00:36:29.051Z,90.98
2022-07-31T00:37:26.984Z,91.22
2022-07-31T00:38:31.362Z,91.39
2022-07-31T00:39:35.691Z,91.51
2022-07-31T00:40:40.003Z,91.48
2022-07-31T00:41:44.354Z,91.30
2022-07-31T00:42:48.739Z,91.42
2022-07-31T00:43:53.118Z,91.85
2022-07-31T00:44:57.492Z,92.25
2022-07-31T00:46:01.868Z,92.46
2022-07-31T00:47:06.675Z,92.96
2022-07-31T00:48:10.657Z,93.34
2022-07-31T00:49:15.249Z,93.46
2022-07-31T00:50:19.448Z,93.37
2022-07-31T00:51:23.815Z,93.60
2022-07-31T00:52:28.095Z,93.59
2022-07-31T00:53:32.515Z,93.74
2022-07-31T00:54:36.893Z,93.97
2022-07-31T00:55:41.776Z,94.17
2022-07-31T00:56:45.645Z,94.29
2022-07-31T00:57:50.020Z,94.36
2022-07-31T00:58:54.310Z,94.45
2022-07-31T00:59:58.711Z,94.38
2022-07-31T01:01:03.313Z,94.08
2022-07-31T01:02:07.636Z,93.84
2022-07-31T01:03:11.961Z,93.72
2022-07-31T01:04:16.357Z,93.61
2022-07-31T01:05:20.815Z,93.49
2022-07-31T01:06:25.068Z,93.46
2022-07-31T01:07:29.479Z,93.47
2022-07-31T01:08:33.822Z,93.42
2022-07-31T01:09:38.210Z,93.17
2022-07-31T01:10:42.616Z,93.11
2022-07-31T01:11:46.915Z,93.04
2022-07-31T01:12:54.230Z,93.02
2022-07-31T01:13:55.655Z,92.96
2022-07-31T01:15:00.105Z,92.89
2022-07-31T01:16:04.388Z,92.83
2022-07-31T01:17:08.759Z,93.33
2022-07-31T01:18:13.114Z,93.73
2022-07-31T01:19:17.477Z,94.01
2022-07-31T01:20:21.841Z,94.09
2022-07-31T01:21:26.197Z,94.17
2022-07-31T01:22:33.905Z,94.27
2022-07-31T01:23:34.994Z,94.33
2022-07-31T01:24:39.290Z,94.38
2022-07-31T01:25:43.714Z,94.45
2022-07-31T01:26:48.141Z,94.46
2022-07-31T01:27:52.363Z,94.36
2022-07-31T01:28:56.686Z,94.32
2022-07-31T01:30:01.064Z,94.40
2022-07-31T01:31:25.684Z,94.42
2022-07-31T01:32:09.924Z,94.53
2022-07-31T01:33:14.275Z,94.52
2022-07-31T01:34:18.686Z,94.61
2022-07-31T01:35:23.021Z,94.66
2022-07-31T01:36:27.481Z,94.51
2022-07-31T01:37:31.683Z,94.42
2022-07-31T01:38:36.116Z,94.37
2022-07-31T01:39:40.477Z,94.51
2022-07-31T01:40:44.737Z,94.71
2022-07-31T01:41:49.068Z,94.91
2022-07-31T01:42:53.379Z,95.11
2022-07-31T01:43:57.805Z,95.33
2022-07-31T01:45:02.180Z,95.47
2022-07-31T01:46:06.526Z,95.57
2022-07-31T01:47:10.986Z,95.65
2022-07-31T01:48:15.241Z,95.74
2022-07-31T01:49:19.629Z,95.78
2022-07-31T01:50:43.931Z,95.77
2022-07-31T01:51:28.389Z,95.88
2022-07-31T01:52:32.813Z,95.81
2022-07-31T01:53:37.114Z,95.88
2022-07-31T01:54:41.246Z,95.93
2022-07-31T01:55:56.355Z,95.96
2022-07-31T01:56:50.012Z,95.85
2022-07-31T01:57:54.387Z,95.63
2022-07-31T01:58:58.860Z,95.38
2022-07-31T02:00:03.238Z,95.27
2022-07-31T02:01:07.644Z,95.08
2022-07-31T02:02:11.928Z,95.05
2022-07-31T02:03:16.401Z,95.23
2022-07-31T02:04:20.708Z,95.23
2022-07-31T02:05:25.076Z,95.13
2022-07-31T02:06:29.533Z,95.05
2022-07-31T02:07:33.873Z,94.89
2022-07-31T02:08:38.319Z,94.89
2022-07-31T02:09:58.715Z,94.78
2022-07-31T02:10:47.012Z,94.76
2022-07-31T02:11:54.706Z,94.64
2022-07-31T02:12:55.639Z,94.97
2022-07-31T02:14:00.096Z,95.03
2022-07-31T02:15:04.440Z,94.96
2022-07-31T02:16:08.813Z,94.86
2022-07-31T02:17:13.289Z,94.79
2022-07-31T02:18:17.623Z,94.81
2022-07-31T02:19:22.056Z,94.69
2022-07-31T02:20:26.314Z,94.52
2022-07-31T02:21:30.766Z,94.48
2022-07-31T02:22:35.015Z,94.93
2022-07-31T02:23:39.435Z,95.62
2022-07-31T02:24:43.790Z,96.18
2022-07-31T02:25:48.273Z,96.74
2022-07-31T02:26:55.528Z,97.11
2022-07-31T02:27:59.366Z,97.43
2022-07-31T02:29:03.353Z,97.86
2022-07-31T02:30:07.720Z,98.31
2022-07-31T02:31:12.066Z,98.56
2022-07-31T02:32:16.621Z,98.75
2022-07-31T02:33:20.765Z,98.92
2022-07-31T02:34:30.053Z,99.01
2022-07-31T02:35:29.451Z,99.09
2022-07-31T02:36:33.843Z,99.24
2022-07-31T02:37:38.272Z,99.35
2022-07-31T02:38:42.627Z,99.38
2022-07-31T02:39:46.984Z,99.25
2022-07-31T02:40:51.342Z,99.02
2022-07-31T02:41:55.691Z,98.84
2022-07-31T02:43:00.102Z,98.63
2022-07-31T02:44:04.434Z,98.48
2022-07-31T02:45:08.760Z,98.36
2022-07-31T02:46:13.131Z,98.29
2022-07-31T02:47:17.496Z,98.36
2022-07-31T02:48:24.841Z,98.38
2022-07-31T02:49:28.346Z,98.41
2022-07-31T02:50:32.613Z,98.57
2022-07-31T02:51:42.610Z,98.69
2022-07-31T02:52:41.233Z,98.66
2022-07-31T02:53:45.611Z,98.53
2022-07-31T02:54:49.885Z,98.35
2022-07-31T02:55:54.282Z,98.20
2022-07-31T02:56:58.700Z,98.36
2022-07-31T02:58:03.044Z,98.41
2022-07-31T02:59:07.343Z,98.41
2022-07-31T03:00:11.760Z,98.51
2022-07-31T03:01:16.269Z,98.58
2022-07-31T03:02:20.452Z,98.71
2022-07-31T03:03:24.771Z,99.09
2022-07-31T03:04:29.180Z,99.36
2022-07-31T03:05:33.449Z,99.38
2022-07-31T03:06:37.865Z,99.32
2022-07-31T03:07:42.214Z,99.38
2022-07-31T03:08:46.695Z,99.44
2022-07-31T03:09:50.997Z,99.57
2022-07-31T03:10:55.337Z,99.67
2022-07-31T03:12:01.886Z,99.79
2022-07-31T03:13:03.973Z,99.97
2022-07-31T03:14:08.294Z,100.00
2022-07-31T03:15:12.602Z,100.00
2022-07-31T03:16:16.988Z,100.00
2022-07-31T03:17:21.327Z,100.00
2022-07-31T03:18:25.664Z,100.00
2022-07-31T03:19:30.023Z,100.00
2022-07-31T03:20:34.285Z,100.00
2022-07-31T03:21:38.672Z,100.00
2022-07-31T03:22:42.989Z,100.00
2022-07-31T03:23:47.457Z,100.00
2022-07-31T03:24:51.767Z,100.00
2022-07-31T03:25:56.005Z,100.00
2022-07-31T03:27:00.477Z,100.00
2022-07-31T03:28:04.789Z,100.00
2022-07-31T03:29:42.411Z,100.00
2022-07-31T03:30:13.576Z,100.00
2022-07-31T03:31:17.867Z,100.00
2022-07-31T03:32:22.311Z,100.00
2022-07-31T03:33:26.641Z,100.00
2022-07-31T03:34:33.927Z,100.00
2022-07-31T03:35:42.451Z,100.00
2022-07-31T03:36:41.742Z,100.00
2022-07-31T03:37:46.025Z,100.00
2022-07-31T03:38:50.854Z,100.00
2022-07-31T03:39:54.635Z,100.00
2022-07-31T03:40:58.995Z,100.00
2022-07-31T03:42:03.697Z,100.00
2022-07-31T03:43:07.587Z,100.00
2022-07-31T03:44:11.879Z,100.00
2022-07-31T03:45:16.260Z,100.00
2022-07-31T03:46:20.519Z,100.00
2022-07-31T03:47:24.826Z,100.00
2022-07-31T03:48:29.105Z,100.00
2022-07-31T03:49:33.470Z,100.00
2022-07-31T03:50:37.771Z,100.00
2022-07-31T03:51:42.093Z,100.00
2022-07-31T03:52:46.395Z,100.00
2022-07-31T03:53:50.767Z,100.00
2022-07-31T03:54:55.048Z,100.00
2022-07-31T03:55:59.408Z,100.00
2022-07-31T03:57:03.668Z,100.00
2022-07-31T03:58:07.989Z,100.00
2022-07-31T03:59:12.374Z,100.00
2022-07-31T04:00:17.759Z,100.00
2022-07-31T04:01:21.172Z,100.00
2022-07-31T04:02:25.422Z,100.00
2022-07-31T04:03:29.663Z,100.00
2022-07-31T04:04:33.932Z,100.00
2022-07-31T04:05:38.315Z,100.00
2022-07-31T04:06:42.626Z,100.00
2022-07-31T04:07:46.883Z,100.00
2022-07-31T04:08:51.190Z,100.00
2022-07-31T04:09:55.514Z,100.00
2022-07-31T04:10:59.835Z,100.00
2022-07-31T04:12:04.546Z,100.00
2022-07-31T04:13:08.446Z,100.00
2022-07-31T04:14:12.855Z,100.00
2022-07-31T04:15:17.207Z,100.00
2022-07-31T04:16:21.449Z,100.00
2022-07-31T04:17:25.748Z,100.00
2022-07-31T04:18:30.105Z,100.00
2022-07-31T04:19:34.353Z,100.00
2022-07-31T04:20:38.725Z,100.00
2022-07-31T04:21:42.988Z,100.00
2022-07-31T04:22:47.395Z,100.00
2022-07-31T04:23:51.661Z,100.00
2022-07-31T04:24:55.932Z,100.00
2022-07-31T04:26:00.364Z,100.00
2022-07-31T04:27:08.129Z,100.00
2022-07-31T04:28:08.962Z,100.00
2022-07-31T04:29:13.397Z,100.00
2022-07-31T04:30:17.732Z,100.00
2022-07-31T04:31:22.093Z,100.00
2022-07-31T04:32:26.439Z,100.00
2022-07-31T04:33:30.753Z,100.00
2022-07-31T04:34:35.048Z,100.00
2022-07-31T04:35:39.444Z,100.00
2022-07-31T04:36:43.703Z,100.00
2022-07-31T04:37:48.656Z,100.00
2022-07-31T04:38:52.481Z,100.00
2022-07-31T04:39:56.739Z,100.00
2022-07-31T04:41:01.107Z,100.00
2022-07-31T04:42:10.723Z,100.00
2022-07-31T04:43:09.832Z,100.00
2022-07-31T04:44:14.106Z,100.00
2022-07-31T04:45:18.424Z,100.00
2022-07-31T04:46:22.782Z,100.00
2022-07-31T04:47:27.072Z,100.00
2022-07-31T04:48:31.340Z,100.00
2022-07-31T04:49:35.822Z,100.00
2022-07-31T04:50:40.096Z,100.00
2022-07-31T04:51:44.474Z,100.00
2022-07-31T04:52:48.707Z,100.00
2022-07-31T04:53:53.054Z,100.00
2022-07-31T04:54:57.355Z,100.00
2022-07-31T04:56:01.691Z,100.00
2022-07-31T04:57:05.984Z,100.00
2022-07-31T04:58:10.426Z,100.00
2022-07-31T04:59:14.684Z,100.00
2022-07-31T05:00:18.995Z,100.00
2022-07-31T05:01:23.331Z,100.00
2022-07-31T05:02:27.773Z,100.00
2022-07-31T05:03:32.152Z,100.00
2022-07-31T05:04:36.505Z,100.00
2022-07-31T05:05:40.760Z,100.00
2022-07-31T05:06:45.183Z,100.00
2022-07-31T05:07:49.506Z,100.00
2022-07-31T05:08:53.812Z,100.00
2022-07-31T05:09:58.185Z,100.00
2022-07-31T05:11:02.560Z,100.00
2022-07-31T05:12:07.271Z,100.00
2022-07-31T05:13:11.198Z,100.00
2022-07-31T05:14:15.660Z,100.00
2022-07-31T05:15:22.924Z,100.00
2022-07-31T05:16:26.419Z,100.00
2022-07-31T05:17:30.781Z,100.00
2022-07-31T05:18:35.053Z,100.00
2022-07-31T05:19:39.437Z,100.00
2022-07-31T05:20:43.723Z,100.00
2022-07-31T05:21:53.698Z,100.00
2022-07-31T05:22:52.581Z,100.00
2022-07-31T05:23:56.835Z,100.00
2022-07-31T05:25:01.192Z,100.00
2022-07-31T05:26:05.580Z,100.00
2022-07-31T05:27:09.964Z,100.00
2022-07-31T05:28:14.256Z,100.00
2022-07-31T05:29:18.551Z,100.00
2022-07-31T05:30:30.414Z,100.00
2022-07-31T05:31:27.330Z,100.00
2022-07-31T05:32:31.645Z,100.00
2022-07-31T05:33:36.059Z,100.00
2022-07-31T05:34:40.342Z,100.00
2022-07-31T05:35:44.762Z,100.00
2022-07-31T05:36:49.022Z,100.00
2022-07-31T05:37:53.429Z,100.00
2022-07-31T05:38:57.804Z,100.00
2022-07-31T05:40:02.111Z,100.00
2022-07-31T05:41:06.427Z,100.00
2022-07-31T05:42:10.744Z,100.00
2022-07-31T05:43:15.190Z,100.00
2022-07-31T05:44:19.577Z,100.00
2022-07-31T05:45:23.939Z,100.00
2022-07-31T05:46:28.221Z,100.00
2022-07-31T05:47:40.091Z,100.00
2022-07-31T05:48:37.037Z,100.00
2022-07-31T05:49:41.345Z,100.00
2022-07-31T05:50:45.644Z,100.00
2022-07-31T05:51:49.945Z,99.79
2022-07-31T05:52:54.496Z,99.84
2022-07-31T05:53:58.802Z,100.00
2022-07-31T05:55:03.142Z,100.00
2022-07-31T05:56:07.543Z,99.62
2022-07-31T05:57:11.904Z,99.26
2022-07-31T05:58:17.036Z,99.00
2022-07-31T05:59:20.497Z,98.90
2022-07-31T06:00:24.940Z,98.99
2022-07-31T06:01:29.264Z,98.85
2022-07-31T06:02:33.568Z,98.82
2022-07-31T06:03:51.568Z,98.66
2022-07-31T06:04:42.244Z,98.41
2022-07-31T06:05:46.701Z,98.18
2022-07-31T06:06:50.968Z,98.28
2022-07-31T06:07:55.427Z,98.17
2022-07-31T06:09:04.541Z,97.96
2022-07-31T06:10:04.180Z,97.74
2022-07-31T06:11:08.598Z,97.73
2022-07-31T06:12:12.873Z,97.71
2022-07-31T06:13:17.203Z,97.50
2022-07-31T06:14:21.636Z,97.47
2022-07-31T06:15:25.937Z,97.52
2022-07-31T06:16:30.270Z,97.76
2022-07-31T06:17:43.669Z,97.63
2022-07-31T06:18:38.958Z,97.52
2022-07-31T06:19:43.363Z,97.47
2022-07-31T06:20:47.746Z,97.36
2022-07-31T06:21:52.163Z,97.19
2022-07-31T06:22:56.474Z,97.04
2022-07-31T06:24:00.788Z,96.86
2022-07-31T06:25:05.241Z,96.67
2022-07-31T06:26:09.590Z,96.23
2022-07-31T06:27:16.239Z,95.98
2022-07-31T06:28:18.355Z,95.86
2022-07-31T06:29:23.592Z,95.84
2022-07-31T06:30:27.182Z,95.74
2022-07-31T06:31:31.438Z,95.59
2022-07-31T06:32:35.793Z,95.24
2022-07-31T06:33:40.214Z,95.18
2022-07-31T06:34:44.619Z,95.20
2022-07-31T06:35:48.902Z,94.97
2022-07-31T06:36:53.358Z,94.86
2022-07-31T06:37:57.761Z,94.88
2022-07-31T06:39:02.051Z,94.92
2022-07-31T06:40:06.512Z,94.80
2022-07-31T06:41:10.912Z,94.75
2022-07-31T06:42:15.307Z,94.67
2022-07-31T06:43:19.694Z,94.55
2022-07-31T06:44:24.125Z,94.41
2022-07-31T06:45:50.764Z,94.42
2022-07-31T06:46:32.945Z,94.23
2022-07-31T06:47:37.256Z,93.93
2022-07-31T06:48:41.686Z,93.20
2022-07-31T06:49:46.077Z,92.45
2022-07-31T06:50:50.437Z,92.13
2022-07-31T06:51:54.797Z,91.73
2022-07-31T06:52:59.253Z,91.94
2022-07-31T06:54:03.677Z,92.15
2022-07-31T06:55:08.050Z,92.64
2022-07-31T06:56:12.408Z,92.73
2022-07-31T06:57:16.785Z,92.77
2022-07-31T06:58:21.170Z,92.68
2022-07-31T06:59:40.354Z,92.53
2022-07-31T07:00:33.058Z,92.39
2022-07-31T07:01:36.680Z,91.99
2022-07-31T07:02:40.998Z,91.58
2022-07-31T07:03:45.453Z,91.68
2022-07-31T07:05:04.466Z,91.38
2022-07-31T07:05:54.230Z,90.70
2022-07-31T07:06:58.667Z,90.60
2022-07-31T07:08:03.098Z,90.28
2022-07-31T07:09:07.416Z,89.42
2022-07-31T07:10:11.927Z,89.63
2022-07-31T07:11:16.322Z,89.62
2022-07-31T07:12:20.720Z,89.51
2022-07-31T07:13:25.137Z,88.16
2022-07-31T07:14:29.577Z,87.14
2022-07-31T07:15:33.958Z,87.10
2022-07-31T07:16:38.407Z,85.83
2022-07-31T07:17:45.928Z,85.98
2022-07-31T07:18:49.434Z,87.18
2022-07-31T07:19:54.749Z,87.85
2022-07-31T07:20:58.258Z,88.00
2022-07-31T07:22:02.979Z,88.15
2022-07-31T07:23:07.066Z,87.85
2022-07-31T07:24:11.495Z,87.78
2022-07-31T07:25:15.837Z,87.81
2022-07-31T07:26:20.331Z,87.77
2022-07-31T07:27:24.730Z,87.86
2022-07-31T07:28:30.582Z,87.83
2022-07-31T07:29:33.615Z,87.88
2022-07-31T07:30:38.045Z,87.65
2022-07-31T07:31:42.508Z,87.79
2022-07-31T07:32:46.809Z,87.57
2022-07-31T07:33:51.281Z,87.32
2022-07-31T07:35:00.121Z,86.74
2022-07-31T07:36:00.107Z,87.02
2022-07-31T07:37:04.434Z,87.12
2022-07-31T07:38:09.381Z,87.38
2022-07-31T07:39:13.320Z,87.41
2022-07-31T07:40:17.665Z,87.34
2022-07-31T07:41:22.049Z,87.36
2022-07-31T07:42:26.501Z,87.37
2022-07-31T07:43:30.972Z,86.86
2022-07-31T07:44:38.380Z,86.99
2022-07-31T07:45:41.979Z,86.70
2022-07-31T07:46:46.347Z,86.41
2022-07-31T07:48:05.176Z,86.54
2022-07-31T07:48:55.212Z,86.73
2022-07-31T07:49:59.605Z,86.65
2022-07-31T07:51:04.036Z,86.38
2022-07-31T07:52:08.454Z,86.24
2022-07-31T07:53:12.778Z,85.80
2022-07-31T07:54:17.259Z,85.65
2022-07-31T07:55:21.583Z,85.97
2022-07-31T07:56:26.072Z,85.12
2022-07-31T07:57:30.385Z,85.00
2022-07-31T07:58:34.749Z,84.47
2022-07-31T07:59:39.139Z,84.98
2022-07-31T08:00:43.661Z,85.28
2022-07-31T08:01:48.006Z,84.98
2022-07-31T08:03:47.071Z,85.14
2022-07-31T08:03:56.774Z,84.41
2022-07-31T08:05:01.290Z,84.47
2022-07-31T08:06:05.847Z,84.35
2022-07-31T08:07:10.168Z,83.63
2022-07-31T08:08:14.658Z,83.80
2022-07-31T08:09:19.097Z,84.31
2022-07-31T08:10:23.445Z,84.00
2022-07-31T08:11:27.958Z,83.22
2022-07-31T08:12:32.262Z,83.91
2022-07-31T08:13:36.686Z,84.42
2022-07-31T08:14:41.075Z,84.49
2022-07-31T08:15:45.464Z,83.70
2022-07-31T08:16:49.982Z,83.46
2022-07-31T08:17:54.271Z,83.74
2022-07-31T08:18:58.775Z,83.68
2022-07-31T08:20:03.210Z,82.89
2022-07-31T08:21:07.696Z,83.50
2022-07-31T08:22:12.052Z,83.86
2022-07-31T08:23:18.260Z,83.90
2022-07-31T08:24:20.733Z,84.05
2022-07-31T08:25:25.140Z,84.23
2022-07-31T08:26:32.611Z,83.17
2022-07-31T08:27:39.998Z,83.34
2022-07-31T08:28:40.513Z,83.53
2022-07-31T08:29:44.929Z,83.74
2022-07-31T08:30:49.313Z,83.77
2022-07-31T08:31:53.842Z,83.50
2022-07-31T08:32:58.197Z,83.58
2022-07-31T08:34:02.675Z,83.66
2022-07-31T08:35:07.045Z,83.53
2022-07-31T08:36:11.517Z,83.46
2022-07-31T08:37:51.638Z,83.45
2022-07-31T08:38:20.416Z,83.52
2022-07-31T08:39:24.878Z,83.59
2022-07-31T08:40:29.317Z,83.65
2022-07-31T08:41:33.682Z,83.68
2022-07-31T08:42:38.134Z,82.38
2022-07-31T08:43:59.883Z,81.84
2022-07-31T08:44:46.982Z,82.00
2022-07-31T08:45:51.334Z,82.77
2022-07-31T08:46:55.869Z,83.25
2022-07-31T08:48:00.288Z,83.23
2022-07-31T08:49:04.774Z,82.59
2022-07-31T08:50:09.017Z,82.56
2022-07-31T08:51:13.545Z,83.08
2022-07-31T08:52:18.028Z,81.70
2022-07-31T08:53:22.502Z,81.17
2022-07-31T08:54:26.988Z,82.10
2022-07-31T08:55:55.951Z,82.77
2022-07-31T08:56:35.779Z,82.59
2022-07-31T08:57:40.282Z,82.60
2022-07-31T08:58:44.678Z,83.07
2022-07-31T08:59:49.055Z,83.40
2022-07-31T09:00:53.605Z,83.41
2022-07-31T09:01:57.955Z,83.41
2022-07-31T09:03:02.360Z,83.41
2022-07-31T09:04:06.871Z,83.43
2022-07-31T09:05:11.311Z,83.63
2022-07-31T09:06:15.761Z,83.59
2022-07-31T09:07:20.236Z,83.74
2022-07-31T09:08:24.705Z,83.62
2022-07-31T09:09:45.211Z,83.42
2022-07-31T09:10:33.603Z,83.57
2022-07-31T09:11:38.091Z,83.56
2022-07-31T09:12:42.457Z,83.47
2022-07-31T09:13:52.465Z,83.57
2022-07-31T09:14:51.411Z,83.52
2022-07-31T09:15:55.888Z,83.73
2022-07-31T09:17:00.382Z,83.52
2022-07-31T09:18:04.803Z,82.77
2022-07-31T09:19:52.755Z,83.37
2022-07-31T09:20:13.650Z,83.38
2022-07-31T09:21:18.101Z,83.14
2022-07-31T09:22:22.607Z,83.38
2022-07-31T09:23:27.036Z,82.55
2022-07-31T09:24:31.552Z,82.85
2022-07-31T09:25:35.925Z,82.75
2022-07-31T09:26:40.453Z,82.04
2022-07-31T09:27:44.911Z,81.84
2022-07-31T09:28:49.374Z,81.68
2022-07-31T09:29:53.831Z,80.77
2022-07-31T09:30:58.191Z,80.95
2022-07-31T09:32:02.763Z,80.98
2022-07-31T09:33:07.119Z,81.01
2022-07-31T09:34:11.532Z,81.10
2022-07-31T09:35:18.984Z,79.96
2022-07-31T09:36:22.661Z,79.78
2022-07-31T09:37:27.106Z,79.27
2022-07-31T09:38:31.683Z,79.52
2022-07-31T09:39:36.138Z,79.93
2022-07-31T09:40:55.422Z,79.92
2022-07-31T09:41:56.838Z,80.16
2022-07-31T09:42:55.676Z,80.47
2022-07-31T09:43:54.075Z,80.71
2022-07-31T09:44:58.537Z,79.65
2022-07-31T09:46:03.067Z,80.17
2022-07-31T09:47:07.643Z,79.85
2022-07-31T09:48:12.545Z,79.57
2022-07-31T09:49:16.619Z,79.64
2022-07-31T09:50:20.958Z,79.70
2022-07-31T09:51:25.427Z,79.83
2022-07-31T09:52:29.928Z,79.53
2022-07-31T09:53:34.423Z,79.83
2022-07-31T09:54:38.901Z,80.29
2022-07-31T09:55:43.378Z,80.13
2022-07-31T09:56:47.875Z,79.98
2022-07-31T09:57:52.340Z,79.89
2022-07-31T09:58:56.815Z,78.97
2022-07-31T10:00:01.299Z,79.02
2022-07-31T10:01:05.886Z,79.05
2022-07-31T10:02:10.144Z,78.92
2022-07-31T10:03:14.754Z,78.98
2022-07-31T10:04:19.110Z,78.46
2022-07-31T10:05:23.737Z,77.34
2022-07-31T10:06:28.193Z,76.55
2022-07-31T10:07:33.044Z,76.11
2022-07-31T10:08:37.018Z,75.70
2022-07-31T10:09:41.522Z,76.68
2022-07-31T10:10:45.930Z,75.01
2022-07-31T10:11:50.539Z,74.28
2022-07-31T10:12:54.954Z,75.67
2022-07-31T10:13:59.414Z,75.92
2022-07-31T10:15:03.874Z,75.77
2022-07-31T10:16:08.421Z,75.69
2022-07-31T10:17:12.744Z,74.97
2022-07-31T10:18:17.259Z,75.28
2022-07-31T10:19:21.733Z,75.07
2022-07-31T10:20:26.343Z,75.69
2022-07-31T10:21:30.768Z,75.42
2022-07-31T10:22:35.260Z,74.20
2022-07-31T10:23:39.717Z,74.93
2022-07-31T10:24:44.221Z,74.12
2022-07-31T10:25:53.455Z,74.95
2022-07-31T10:27:01.948Z,74.75
2022-07-31T10:27:57.763Z,74.26
2022-07-31T10:29:16.419Z,74.03
2022-07-31T10:30:33.893Z,72.93
2022-07-31T10:31:37.251Z,71.97
2022-07-31T10:32:41.642Z,71.82
2022-07-31T10:33:46.107Z,72.30
2022-07-31T10:34:50.696Z,72.92
2022-07-31T10:35:55.740Z,70.78
2022-07-31T10:36:59.643Z,72.27
2022-07-31T10:38:04.136Z,73.00
2022-07-31T10:39:08.774Z,71.01
2022-07-31T10:40:13.300Z,70.14
2022-07-31T10:41:17.715Z,70.56
2022-07-31T10:42:22.161Z,71.22
2022-07-31T10:43:26.710Z,71.70
2022-07-31T10:44:33.484Z,71.29
2022-07-31T10:45:35.547Z,71.97
2022-07-31T10:46:40.158Z,70.91
2022-07-31T10:47:50.612Z,71.75
2022-07-31T10:48:53.906Z,71.41
2022-07-31T10:49:58.305Z,71.30
2022-07-31T10:51:02.657Z,71.25
2022-07-31T10:52:07.198Z,70.76
2022-07-31T10:53:11.713Z,71.55
2022-07-31T10:54:16.166Z,70.64
2022-07-31T10:55:20.639Z,71.41
2022-07-31T10:56:25.133Z,70.62
2022-07-31T10:57:29.598Z,71.15
2022-07-31T10:58:34.083Z,71.74
2022-07-31T10:59:42.909Z,70.46
2022-07-31T11:00:43.091Z,70.98
2022-07-31T11:01:53.217Z,71.67
2022-07-31T11:02:51.966Z,70.72
2022-07-31T11:03:56.543Z,70.38
2022-07-31T11:05:00.971Z,70.89
2022-07-31T11:06:05.451Z,71.45
2022-07-31T11:07:09.955Z,71.51
2022-07-31T11:08:14.356Z,70.99
2022-07-31T11:09:18.887Z,71.41
2022-07-31T11:10:23.388Z,70.55
2022-07-31T11:11:27.824Z,70.73
2022-07-31T11:12:32.359Z,71.03
2022-07-31T11:13:37.350Z,70.97
2022-07-31T11:14:41.337Z,69.75
2022-07-31T11:15:45.846Z,69.98
2022-07-31T11:16:50.315Z,68.31
2022-07-31T11:18:21.325Z,69.03
2022-07-31T11:18:59.269Z,70.07
2022-07-31T11:20:03.863Z,70.11
2022-07-31T11:21:36.052Z,69.56
2022-07-31T11:22:31.935Z,68.10
2022-07-31T11:23:17.349Z,69.70
2022-07-31T11:24:21.827Z,69.31
2022-07-31T11:25:26.352Z,69.19
2022-07-31T11:26:33.002Z,67.50
2022-07-31T11:27:35.388Z,68.44
2022-07-31T11:28:39.799Z,67.05
2022-07-31T11:30:01.672Z,68.43
2022-07-31T11:30:48.901Z,67.47
2022-07-31T11:31:53.359Z,67.30
2022-07-31T11:32:57.891Z,67.40
2022-07-31T11:34:02.423Z,67.85
2022-07-31T11:35:06.874Z,67.33
2022-07-31T11:36:11.387Z,67.59
2022-07-31T11:37:15.912Z,66.62
2022-07-31T11:38:20.446Z,65.80
2022-07-31T11:39:32.804Z,66.24
2022-07-31T11:40:29.474Z,65.30
2022-07-31T11:41:38.210Z,63.57
2022-07-31T11:42:38.460Z,63.62
2022-07-31T11:43:42.957Z,64.10
2022-07-31T11:44:47.477Z,62.97
2022-07-31T11:45:51.983Z,63.63
2022-07-31T11:46:56.452Z,62.56
2022-07-31T11:48:12.360Z,64.93
2022-07-31T11:49:05.625Z,62.54
2022-07-31T11:50:09.988Z,63.35
2022-07-31T11:51:14.547Z,64.20
2022-07-31T11:52:30.300Z,62.87
2022-07-31T11:53:23.596Z,62.90
2022-07-31T11:54:27.999Z,63.23
2022-07-31T11:55:32.547Z,62.77
2022-07-31T11:56:37.034Z,61.94
2022-07-31T11:57:50.972Z,62.94
2022-07-31T11:58:46.026Z,61.67
2022-07-31T11:59:50.561Z,61.93
2022-07-31T12:00:55.035Z,61.68
2022-07-31T12:01:59.496Z,63.14
2022-07-31T12:03:04.140Z,61.83
2022-07-31T12:04:09.183Z,61.67
2022-07-31T12:05:12.888Z,60.32
2022-07-31T12:06:17.457Z,59.70
2022-07-31T12:07:21.974Z,60.32
2022-07-31T12:08:26.510Z,59.82
2022-07-31T12:10:02.531Z,60.49
2022-07-31T12:10:35.469Z,60.80
2022-07-31T12:11:40.079Z,62.01
2022-07-31T12:12:44.540Z,60.70
2022-07-31T12:13:49.119Z,59.58
2022-07-31T12:14:53.584Z,60.25
2022-07-31T12:15:58.066Z,60.28
2022-07-31T12:17:02.858Z,61.75
2022-07-31T12:18:06.984Z,61.98
2022-07-31T12:19:11.527Z,62.76
2022-07-31T12:20:29.828Z,62.58
2022-07-31T12:21:20.544Z,62.62
2022-07-31T12:22:25.073Z,60.69
2022-07-31T12:23:40.216Z,59.87
2022-07-31T12:24:34.077Z,58.88
2022-07-31T12:25:38.631Z,58.95
2022-07-31T12:26:43.153Z,60.13
2022-07-31T12:27:47.678Z,60.31
2022-07-31T12:28:52.103Z,61.47
2022-07-31T12:29:56.582Z,61.95
2022-07-31T12:31:01.201Z,61.61
2022-07-31T12:32:05.704Z,61.71
2022-07-31T12:33:10.231Z,61.55
2022-07-31T12:34:14.748Z,60.09
2022-07-31T12:35:19.177Z,59.95
2022-07-31T12:36:23.628Z,60.01
2022-07-31T12:37:28.048Z,60.08
2022-07-31T12:38:45.139Z,59.70
2022-07-31T12:39:54.010Z,59.55
2022-07-31T12:40:41.714Z,60.08
2022-07-31T12:41:47.140Z,59.99
2022-07-31T12:42:51.285Z,60.18
2022-07-31T12:43:55.794Z,60.93
2022-07-31T12:45:00.333Z,61.26
2022-07-31T12:46:04.846Z,61.54
2022-07-31T12:47:09.313Z,61.69
2022-07-31T12:48:13.838Z,61.86
2022-07-31T12:49:18.427Z,62.74
2022-07-31T12:50:22.875Z,62.48
2022-07-31T12:51:43.976Z,62.89
2022-07-31T12:52:31.831Z,62.72
2022-07-31T12:53:36.387Z,62.73
2022-07-31T12:54:40.843Z,62.89
2022-07-31T12:55:45.299Z,63.03
2022-07-31T12:56:49.850Z,62.78
2022-07-31T12:57:54.270Z,62.65
2022-07-31T12:58:58.827Z,62.98
2022-07-31T13:00:03.344Z,63.17
2022-07-31T13:01:07.868Z,63.30
2022-07-31T13:02:12.368Z,63.27
2022-07-31T13:03:16.885Z,63.20
2022-07-31T13:04:21.355Z,63.35
2022-07-31T13:05:25.956Z,62.66
2022-07-31T13:06:30.493Z,63.32
2022-07-31T13:07:34.908Z,62.63
2022-07-31T13:08:39.350Z,63.10
2022-07-31T13:09:43.997Z,62.31
2022-07-31T13:10:48.418Z,63.05
2022-07-31T13:11:57.436Z,63.30
2022-07-31T13:12:57.546Z,63.26
2022-07-31T13:14:01.989Z,62.80
2022-07-31T13:15:06.469Z,63.07
2022-07-31T13:16:10.970Z,63.23
2022-07-31T13:17:15.448Z,63.28
2022-07-31T13:18:19.949Z,63.65
2022-07-31T13:19:24.442Z,63.59
2022-07-31T13:20:28.946Z,63.51
2022-07-31T13:21:40.599Z,63.77
2022-07-31T13:22:37.974Z,63.36
2022-07-31T13:23:42.457Z,62.60
2022-07-31T13:24:46.903Z,62.41
2022-07-31T13:25:51.443Z,62.77
2022-07-31T13:26:55.957Z,62.95
2022-07-31T13:28:00.362Z,63.13
2022-07-31T13:29:04.863Z,63.25
2022-07-31T13:30:12.425Z,63.48
2022-07-31T13:31:16.055Z,63.34
2022-07-31T13:32:20.412Z,63.68
2022-07-31T13:33:24.944Z,63.89
2022-07-31T13:34:29.485Z,64.30
2022-07-31T13:35:33.987Z,64.47
2022-07-31T13:36:39.442Z,64.30
2022-07-31T13:37:43.045Z,64.45
2022-07-31T13:38:47.467Z,64.03
2022-07-31T13:39:51.890Z,64.36
2022-07-31T13:40:56.341Z,64.61
2022-07-31T13:42:00.797Z,64.59
2022-07-31T13:43:05.329Z,63.95
2022-07-31T13:44:09.852Z,63.56
2022-07-31T13:45:14.361Z,63.06